Birchdale, Minnesota
Current Conditions -  °F | °C
As of 12:53 AM on Tuesday 21 Oct 2014 (Local Time) from KBDE Reporting Station
Clear Clear  
Wind Chill: 32°   Ceiling: Unl
Heat Index: 36°   Visibility: 10mi
Dew Point: 33°   Wind: 5mph
Humidity: 89%   Direction: 130°SE
Pressure: 30.12"   Gusts: NA
Location:  48.63°N, 94.1°W
Report Text: KBDE 210553Z AUTO 13004KT 10SM CLR 02/01 A3012 RMK AO2 SLP211 T00220006 10061 20017 401000017 53004 TSNO
Loading
Personal Weather Stations






























Interactive Weather Map
Tropical Storm Tracking
New forecast layout! Learn more

10-Day Weather Forecast

Advertisements
Track Severe Weather on mobile